Time;durP1;ratioP1;P1;durP2;ratioP2;P2;SDS_P1;SDS_P2;PMS_P1;PMS_P2;Temp;Humidity;BMP_temperature;BMP_pressure;BME280_temperature;BME280_humidity;BME280_pressure;Samples;Min_cycle;Max_cycle;Signal;HPM_P1;HPM_P2
2022/11/11 00:00:59;;;;;;;7.30;1.70;;;;;;;10.60;96.04;102286.66;5050967;28;20565;-72
2022/11/11 00:03:26;;;;;;;7.83;2.20;;;;;;;10.60;95.85;102284.75;5053904;28;20426;-72
2022/11/11 00:05:53;;;;;;;4.40;1.37;;;;;;;10.55;95.92;102279.31;5051924;28;20454;-72
2022/11/11 00:08:19;;;;;;;8.63;2.07;;;;;;;10.51;96.16;102282.78;5053440;28;20486;-72
2022/11/11 00:10:46;;;;;;;7.23;1.77;;;;;;;10.56;96.02;102285.53;5052693;28;20942;-72
2022/11/11 00:13:14;;;;;;;7.27;1.83;;;;;;;10.53;96.29;102280.63;5052769;28;20458;-72
2022/11/11 00:15:40;;;;;;;8.33;1.90;;;;;;;10.54;95.70;102290.41;5053745;28;20540;-72
2022/11/11 00:26:22;;;;;;;9.47;1.60;;;;;;;10.25;92.47;102316.94;5053397;28;20450;-72
2022/11/11 00:28:50;;;;;;;6.10;1.30;;;;;;;10.17;92.83;102320.09;5052150;28;20565;-72
2022/11/11 00:31:17;;;;;;;4.50;1.40;;;;;;;10.18;93.44;102319.84;5053370;28;21026;-73
2022/11/11 00:33:43;;;;;;;5.07;1.40;;;;;;;10.15;95.22;102314.13;5052557;28;20462;-72
2022/11/11 00:36:09;;;;;;;6.27;1.33;;;;;;;10.15;96.07;102320.34;5048918;28;20474;-72
2022/11/11 00:38:48;;;;;;;7.80;2.03;;;;;;;10.15;96.41;102317.63;5053365;28;20477;-72
2022/11/11 00:41:17;;;;;;;10.23;1.90;;;;;;;10.19;96.49;102318.75;5052423;28;20277;-72
2022/11/11 00:43:44;;;;;;;6.03;1.77;;;;;;;10.11;96.01;102328.16;5053397;28;20446;-72
2022/11/11 00:51:41;;;;;;;8.03;2.00;;;;;;;10.09;96.17;102310.53;5050251;28;20480;-72
2022/11/11 00:54:08;;;;;;;8.43;1.77;;;;;;;10.06;97.36;102303.75;5033367;28;20534;-72
2022/11/11 00:56:36;;;;;;;5.30;1.60;;;;;;;10.05;97.44;102302.13;5046730;28;20465;-72
2022/11/11 00:59:03;;;;;;;6.30;2.03;;;;;;;10.06;98.44;102301.03;5053223;28;20812;-72
2022/11/11 01:01:31;;;;;;;11.43;1.80;;;;;;;10.11;98.20;102306.50;5052043;28;20561;-72
2022/11/11 01:03:58;;;;;;;7.70;1.97;;;;;;;10.10;98.08;102293.22;5052134;28;20462;-67
2022/11/11 01:06:25;;;;;;;8.43;1.87;;;;;;;10.10;98.08;102282.41;5055706;28;20458;-67
2022/11/11 01:08:52;;;;;;;5.43;1.87;;;;;;;10.12;98.03;102269.41;5057084;28;20576;-70
2022/11/11 01:11:20;;;;;;;6.70;1.70;;;;;;;10.14;98.11;102271.84;5056366;28;20484;-73
2022/11/11 01:13:47;;;;;;;5.40;1.30;;;;;;;10.15;98.40;102287.03;5056156;28;20553;-72
2022/11/11 01:16:17;;;;;;;7.37;1.73;;;;;;;10.15;98.93;102274.31;5057184;28;20460;-73
2022/11/11 01:18:45;;;;;;;5.27;1.70;;;;;;;10.19;98.12;102271.91;5055835;28;20481;-73
2022/11/11 01:21:14;;;;;;;4.17;1.37;;;;;;;10.23;98.07;102268.44;5056824;28;20461;-73
2022/11/11 01:23:42;;;;;;;5.07;1.60;;;;;;;10.21;97.88;102270.56;5055848;28;20462;-73
2022/11/11 01:26:13;;;;;;;5.20;1.47;;;;;;;10.22;97.00;102272.19;5056947;28;20959;-73
2022/11/11 01:28:40;;;;;;;5.60;1.67;;;;;;;10.16;97.19;102269.72;5056059;28;20486;-72
2022/11/11 01:31:09;;;;;;;7.13;2.20;;;;;;;10.19;96.96;102267.31;5056473;28;20577;-73
2022/11/11 01:33:36;;;;;;;6.57;1.83;;;;;;;10.21;97.41;102267.84;5055669;28;20493;-73
2022/11/11 01:36:09;;;;;;;5.33;1.53;;;;;;;10.27;97.20;102275.00;5056922;28;20480;-72
2022/11/11 01:38:36;;;;;;;5.70;2.00;;;;;;;10.28;97.05;102271.22;5055870;28;20537;-73
2022/11/11 01:41:31;;;;;;;5.00;1.50;;;;;;;10.31;97.11;102278.00;5056384;28;20827;-72
2022/11/11 01:43:52;;;;;;;5.50;1.63;;;;;;;10.32;96.99;102276.94;5054018;28;20465;-72
2022/11/11 01:46:34;;;;;;;5.13;1.37;;;;;;;10.31;97.01;102281.53;5056190;28;20982;-73
2022/11/11 01:49:17;;;;;;;13.23;2.90;;;;;;;10.37;96.59;102282.41;5055863;28;20480;-72
2022/11/11 01:51:50;;;;;;;7.07;1.70;;;;;;;10.39;96.75;102274.81;5036537;28;20466;-73
2022/11/11 01:54:21;;;;;;;4.83;1.70;;;;;;;10.37;96.22;102289.72;5037943;28;20431;-72
2022/11/11 01:56:51;;;;;;;5.20;1.63;;;;;;;10.32;96.60;102296.72;5056358;28;20470;-74
2022/11/11 01:59:18;;;;;;;10.60;2.20;;;;;;;10.31;96.97;102299.66;5054894;28;20469;-73
2022/11/11 02:01:46;;;;;;;9.77;2.60;;;;;;;10.32;96.32;102299.44;5055857;28;20966;-73
2022/11/11 02:07:03;;;;;;;5.60;1.50;;;;;;;10.28;96.59;102306.44;5036265;28;20457;-74
2022/11/11 02:09:30;;;;;;;8.13;1.47;;;;;;;10.25;96.65;102304.22;5049935;28;20557;-73
2022/11/11 02:14:46;;;;;;;4.20;1.30;;;;;;;10.26;96.96;102300.44;5054553;28;20473;-72
2022/11/11 02:17:15;;;;;;;5.00;1.87;;;;;;;10.21;95.84;102308.47;5054386;28;20478;-74
2022/11/11 02:19:49;;;;;;;12.47;1.77;;;;;;;10.26;95.98;102315.88;5054729;28;20478;-73
2022/11/11 02:22:27;;;;;;;4.93;1.40;;;;;;;10.25;95.01;102319.66;5055639;28;20434;-74
2022/11/11 02:24:57;;;;;;;8.50;1.67;;;;;;;10.17;94.38;102326.31;5053958;28;20464;-73
2022/11/11 02:27:26;;;;;;;6.33;2.40;;;;;;;10.16;94.17;102330.09;5055590;28;20504;-73
2022/11/11 02:29:55;;;;;;;5.77;1.60;;;;;;;10.19;95.83;102323.38;5055050;28;21007;-74
2022/11/11 02:32:22;;;;;;;5.17;1.50;;;;;;;10.25;95.89;102322.38;5054625;28;20454;-74
2022/11/11 02:34:48;;;;;;;7.00;1.60;;;;;;;10.24;96.19;102318.84;5055519;28;20442;-73
2022/11/11 02:37:19;;;;;;;4.67;1.60;;;;;;;10.21;96.56;102313.91;5054301;28;20501;-74
2022/11/11 02:39:49;;;;;;;6.97;1.43;;;;;;;10.24;96.25;102318.84;5054730;28;20518;-73
2022/11/11 02:42:19;;;;;;;5.30;1.80;;;;;;;10.19;96.61;102313.34;5055597;28;20473;-74
2022/11/11 02:44:46;;;;;;;9.70;1.80;;;;;;;10.20;96.44;102309.56;5054509;28;20465;-73
2022/11/11 02:47:13;;;;;;;4.97;2.03;;;;;;;10.19;97.04;102305.22;5054259;28;20542;-73
2022/11/11 02:49:39;;;;;;;5.57;1.60;;;;;;;10.16;97.34;102310.31;5054387;28;20486;-73
2022/11/11 02:52:06;;;;;;;4.50;1.20;;;;;;;10.19;96.84;102313.34;5055279;28;20576;-73
2022/11/11 02:54:32;;;;;;;4.90;1.47;;;;;;;10.17;96.81;102318.19;5054246;28;20464;-73
2022/11/11 02:57:08;;;;;;;4.67;1.60;;;;;;;10.18;96.72;102319.84;5053899;28;21040;-73
2022/11/11 02:59:38;;;;;;;14.30;1.57;;;;;;;10.17;97.07;102314.66;5050771;28;20462;-72
2022/11/11 03:02:05;;;;;;;9.97;2.50;;;;;;;10.16;97.25;102308.44;5054164;28;20460;-72
2022/11/11 03:04:32;;;;;;;5.10;2.03;;;;;;;10.21;97.24;102316.59;5054923;28;20446;-74
2022/11/11 03:06:58;;;;;;;7.07;2.20;;;;;;;10.21;96.99;102305.78;5054158;28;20490;-73
2022/11/11 03:09:25;;;;;;;8.53;2.50;;;;;;;10.24;96.25;102308.00;5054472;28;20486;-73
2022/11/11 03:11:52;;;;;;;7.50;2.07;;;;;;;10.25;96.31;102317.75;5053729;28;20613;-73
2022/11/11 03:14:18;;;;;;;5.20;1.70;;;;;;;10.23;94.96;102310.94;5054736;28;20920;-74
2022/11/11 03:19:30;;;;;;;6.10;1.83;;;;;;;10.19;95.73;102299.81;5053062;28;20533;-73
2022/11/11 03:21:58;;;;;;;10.77;2.00;;;;;;;10.17;96.02;102303.84;5052923;28;20554;-74
2022/11/11 03:25:36;;;;;;;5.60;1.77;;;;;;;10.11;96.24;102308.38;5054682;28;20449;-73
2022/11/11 03:27:11;;;;;;;14.83;2.10;;;;;;;10.11;95.24;102305.69;5051928;28;20462;-73
2022/11/11 03:29:38;;;;;;;6.23;1.40;;;;;;;10.11;95.82;102294.84;5053268;28;20490;-73
2022/11/11 03:32:07;;;;;;;6.37;1.53;;;;;;;10.13;95.96;102297.28;5054520;28;20481;-73
2022/11/11 03:34:33;;;;;;;6.00;2.03;;;;;;;10.12;96.60;102296.47;5052469;28;20457;-73
2022/11/11 03:39:44;;;;;;;6.10;1.90;;;;;;;10.10;96.90;102287.81;5053166;28;20472;-73
2022/11/11 03:42:11;;;;;;;5.10;1.60;;;;;;;10.08;96.61;102284.53;5053401;28;20446;-73
2022/11/11 03:44:37;;;;;;;8.93;2.30;;;;;;;10.05;96.34;102272.34;5054217;28;20442;-73
2022/11/11 03:47:05;;;;;;;5.60;1.70;;;;;;;10.05;96.51;102266.91;5053367;28;20900;-72
2022/11/11 03:49:32;;;;;;;5.30;1.50;;;;;;;10.05;96.73;102261.50;5054117;28;20492;-72
2022/11/11 03:51:58;;;;;;;5.23;1.60;;;;;;;10.07;96.69;102266.66;5053542;28;20481;-71
2022/11/11 03:54:25;;;;;;;6.43;2.33;;;;;;;10.08;96.57;102260.16;5034280;28;20454;-74
2022/11/11 03:56:52;;;;;;;7.33;1.80;;;;;;;10.06;96.36;102259.59;5034345;28;20447;-73
2022/11/11 03:59:18;;;;;;;9.53;1.83;;;;;;;10.05;96.39;102266.91;5052427;28;21006;-73
2022/11/11 04:18:16;;;;;;;5.53;1.50;;;;;;;10.13;94.95;102265.63;5052815;28;20498;-72
2022/11/11 04:23:28;;;;;;;6.17;1.90;;;;;;;10.25;94.17;102262.78;5072504;28;20476;-70
2022/11/11 04:25:55;;;;;;;4.90;1.30;;;;;;;10.25;93.93;102258.19;5072615;28;20457;-69
2022/11/11 04:31:06;;;;;;;6.30;1.60;;;;;;;10.24;94.08;102250.28;5050272;28;20488;-69
2022/11/11 04:33:32;;;;;;;8.37;1.37;;;;;;;10.27;93.89;102264.19;5052352;28;20459;-69
2022/11/11 04:36:00;;;;;;;4.20;1.27;;;;;;;10.29;93.83;102272.03;5053250;28;21023;-69
2022/11/11 04:41:11;;;;;;;4.40;1.67;;;;;;;10.29;93.91;102286.38;5032716;28;20523;-71
2022/11/11 04:46:19;;;;;;;6.90;1.70;;;;;;;10.37;93.84;102297.84;5052705;28;20446;-69
2022/11/11 04:48:45;;;;;;;6.67;1.37;;;;;;;10.38;93.88;102283.22;5051362;28;20472;-69
2022/11/11 04:51:13;;;;;;;4.33;1.43;;;;;;;10.38;93.34;102294.06;5052543;28;20577;-69
2022/11/11 04:53:40;;;;;;;6.63;2.70;;;;;;;10.41;93.36;102286.22;5052056;28;20464;-69
2022/11/11 04:59:14;;;;;;;5.70;1.40;;;;;;;10.48;92.78;102291.41;5051904;28;20453;-69
2022/11/11 05:04:23;;;;;;;5.73;1.80;;;;;;;10.45;93.01;102300.91;5051833;28;20414;-69
2022/11/11 05:09:35;;;;;;;5.17;1.90;;;;;;;10.44;91.00;102288.41;5051651;28;20481;-69
2022/11/11 05:12:01;;;;;;;6.17;1.70;;;;;;;10.38;89.84;102300.28;5052766;28;20462;-69
2022/11/11 05:22:43;;;;;;;5.40;1.60;;;;;;;10.27;92.95;102299.38;5051241;28;20426;-69
2022/11/11 05:25:28;;;;;;;4.60;1.37;;;;;;;10.30;92.86;102309.69;5051702;28;20462;-69
2022/11/11 05:27:55;;;;;;;4.83;1.37;;;;;;;10.34;92.70;102299.97;5051501;28;20469;-69
2022/11/11 05:30:23;;;;;;;8.67;1.70;;;;;;;10.29;93.28;102308.06;5051971;28;20486;-68
2022/11/11 05:32:49;;;;;;;4.40;1.37;;;;;;;10.33;93.07;102311.88;5052758;28;20438;-69
2022/11/11 05:35:17;;;;;;;5.53;1.30;;;;;;;10.30;92.38;102325.94;5032745;28;20471;-69
2022/11/11 05:38:19;;;;;;;4.63;1.67;;;;;;;10.30;91.59;102327.81;5051816;28;20450;-69
2022/11/11 05:40:34;;;;;;;18.37;1.80;;;;;;;10.24;92.49;102337.81;5051283;28;20892;-69
2022/11/11 05:43:00;;;;;;;10.97;2.03;;;;;;;10.28;92.41;102341.63;5052893;28;20533;-69
2022/11/11 05:45:27;;;;;;;7.93;1.83;;;;;;;10.31;92.57;102349.25;5051697;28;20454;-69
2022/11/11 05:47:53;;;;;;;7.00;1.47;;;;;;;10.33;92.83;102351.69;5032875;28;20445;-69
2022/11/11 05:50:20;;;;;;;11.93;1.40;;;;;;;10.35;92.82;102350.34;5042310;28;20564;-69
2022/11/11 05:52:49;;;;;;;8.93;1.97;;;;;;;10.34;92.19;102340.59;5053736;28;20505;-69
2022/11/11 05:55:16;;;;;;;9.90;1.93;;;;;;;10.32;92.67;102331.13;5056355;28;20438;-69
2022/11/11 05:57:42;;;;;;;7.70;1.60;;;;;;;10.31;92.98;102330.31;5054621;28;20454;-70
2022/11/11 06:00:10;;;;;;;4.73;1.93;;;;;;;10.28;92.73;102333.50;5054894;28;20454;-69
2022/11/11 06:02:36;;;;;;;5.20;1.60;;;;;;;10.27;92.85;102337.31;5053613;28;20850;-70
2022/11/11 06:05:03;;;;;;;5.43;1.53;;;;;;;10.28;92.50;102338.13;5056084;28;20461;-69
2022/11/11 06:07:30;;;;;;;7.13;1.63;;;;;;;10.23;93.08;102338.84;5054924;28;20552;-70
2022/11/11 06:10:29;;;;;;;5.50;1.90;;;;;;;10.17;93.71;102330.91;5054520;28;20573;-68
2022/11/11 06:15:25;;;;;;;5.27;1.50;;;;;;;10.14;93.41;102337.69;5054116;28;20462;-69
2022/11/11 06:17:51;;;;;;;4.97;1.30;;;;;;;10.13;93.54;102338.72;5054515;28;20458;-69
2022/11/11 06:20:18;;;;;;;8.43;2.07;;;;;;;10.10;93.98;102345.47;5055115;28;20565;-69
2022/11/11 06:22:57;;;;;;;7.60;2.40;;;;;;;10.14;93.58;102351.22;5053886;28;20541;-69
2022/11/11 06:28:10;;;;;;;4.00;1.20;;;;;;;10.06;93.74;102348.94;5035236;28;20829;-69
2022/11/11 06:30:37;;;;;;;7.63;1.80;;;;;;;10.04;93.12;102351.91;5034805;28;20502;-69
2022/11/11 06:33:06;;;;;;;5.67;1.97;;;;;;;10.06;93.10;102351.66;5035240;28;20486;-69
2022/11/11 06:35:33;;;;;;;4.80;1.53;;;;;;;10.07;92.86;102347.88;5035522;28;20448;-69
2022/11/11 06:38:00;;;;;;;8.03;1.30;;;;;;;10.06;93.36;102357.06;5035480;28;20475;-69
2022/11/11 06:40:28;;;;;;;5.13;1.43;;;;;;;10.04;93.52;102348.38;5035054;28;20463;-69
2022/11/11 06:42:54;;;;;;;4.43;1.70;;;;;;;10.10;93.82;102355.50;5034720;28;20937;-69
2022/11/11 06:45:21;;;;;;;5.93;1.93;;;;;;;10.08;93.81;102360.34;5035334;28;20435;-69
2022/11/11 06:47:48;;;;;;;5.90;1.43;;;;;;;10.10;93.99;102356.31;5035332;28;20455;-70
2022/11/11 06:50:15;;;;;;;9.57;1.80;;;;;;;10.12;93.59;102350.63;5035125;28;20578;-69
2022/11/11 06:52:42;;;;;;;5.33;1.97;;;;;;;10.15;93.29;102350.13;5035085;28;20536;-69
2022/11/11 06:55:09;;;;;;;4.90;2.00;;;;;;;10.18;93.13;102351.50;5035174;28;20911;-70
2022/11/11 06:57:37;;;;;;;7.50;1.63;;;;;;;10.17;93.08;102347.16;5035092;28;20457;-69
2022/11/11 07:00:05;;;;;;;6.70;1.63;;;;;;;10.12;93.66;102347.94;5035015;28;20474;-69
2022/11/11 07:02:32;;;;;;;6.50;1.43;;;;;;;10.16;93.60;102351.75;5034297;28;20510;-70
2022/11/11 07:04:59;;;;;;;9.87;2.03;;;;;;;10.15;93.26;102347.44;5035033;28;20548;-70
2022/11/11 07:07:25;;;;;;;5.93;1.70;;;;;;;10.19;93.60;102345.84;5034870;28;20446;-70
2022/11/11 07:09:54;;;;;;;4.80;1.50;;;;;;;10.17;91.83;102342.56;5034714;28;20483;-71
2022/11/11 07:12:21;;;;;;;6.40;1.90;;;;;;;10.21;92.55;102353.69;5034801;28;20868;-68
2022/11/11 07:14:49;;;;;;;4.63;2.00;;;;;;;10.24;93.08;102359.47;5034471;28;20440;-70
2022/11/11 07:17:15;;;;;;;5.80;2.00;;;;;;;10.23;93.38;102352.38;5034401;28;20995;-70
2022/11/11 07:19:42;;;;;;;5.20;1.77;;;;;;;10.28;92.96;102346.25;5034705;28;20452;-69
2022/11/11 07:22:08;;;;;;;9.93;1.63;;;;;;;10.29;93.39;102345.16;5034203;28;20507;-69
2022/11/11 07:24:35;;;;;;;8.23;1.97;;;;;;;10.39;92.27;102344.44;5034583;28;20442;-68
2022/11/11 07:27:02;;;;;;;6.77;1.90;;;;;;;10.37;91.89;102342.00;5034298;28;20485;-69
2022/11/11 07:29:29;;;;;;;4.93;1.43;;;;;;;10.40;92.38;102352.28;5034471;28;20443;-69
2022/11/11 07:31:56;;;;;;;7.93;2.00;;;;;;;10.44;92.39;102353.41;5034272;28;20491;-69
2022/11/11 07:34:23;;;;;;;7.80;1.80;;;;;;;10.48;91.65;102353.72;5034007;28;20439;-70
2022/11/11 07:36:50;;;;;;;4.40;1.57;;;;;;;10.50;91.65;102360.53;5034323;28;20447;-70
2022/11/11 07:39:16;;;;;;;5.60;1.57;;;;;;;10.51;91.92;102372.19;5034298;28;20446;-70
2022/11/11 07:41:43;;;;;;;8.77;1.87;;;;;;;10.55;91.62;102379.56;5034201;28;20465;-70
2022/11/11 07:44:09;;;;;;;12.63;1.93;;;;;;;10.53;91.17;102383.59;5034179;28;20478;-70
2022/11/11 07:46:36;;;;;;;5.03;1.27;;;;;;;10.60;91.18;102386.91;5034174;28;20526;-68
2022/11/11 07:49:04;;;;;;;6.73;1.70;;;;;;;10.68;90.62;102391.06;5033860;28;20923;-68
2022/11/11 07:51:30;;;;;;;5.30;1.67;;;;;;;10.68;89.62;102389.16;5033929;28;20491;-67
2022/11/11 07:53:57;;;;;;;4.53;1.37;;;;;;;10.70;89.61;102387.00;5034070;28;20449;-67
2022/11/11 07:56:23;;;;;;;4.73;1.47;;;;;;;10.74;89.24;102390.00;5034001;28;20443;-68
2022/11/11 07:58:50;;;;;;;10.53;1.97;;;;;;;10.73;88.57;102381.06;5033991;28;20517;-68
2022/11/11 08:01:17;;;;;;;4.70;1.30;;;;;;;10.77;88.33;102386.81;5033510;28;20554;-68
2022/11/11 08:03:49;;;;;;;4.63;1.50;;;;;;;10.81;88.52;102396.06;5033874;28;20447;-68
2022/11/11 08:06:17;;;;;;;4.60;1.60;;;;;;;10.83;88.69;102410.97;5033878;28;20466;-67
2022/11/11 08:08:44;;;;;;;9.23;1.70;;;;;;;10.94;88.66;102411.06;5033782;28;20439;-67
2022/11/11 08:11:10;;;;;;;8.97;1.43;;;;;;;10.99;88.55;102408.41;5033682;28;20509;-67
2022/11/11 08:13:39;;;;;;;9.27;1.20;;;;;;;11.06;87.69;102409.81;5033089;28;20522;-67
2022/11/11 08:16:06;;;;;;;8.37;2.77;;;;;;;11.15;88.14;102412.84;5033272;28;20447;-67
2022/11/11 08:18:33;;;;;;;5.50;1.57;;;;;;;11.22;87.56;102408.03;5033624;28;20443;-68
2022/11/11 08:20:59;;;;;;;6.87;1.70;;;;;;;11.27;86.78;102408.06;5033176;28;20471;-67
2022/11/11 08:23:32;;;;;;;6.53;1.43;;;;;;;11.28;86.39;102415.13;5033609;28;20541;-68
2022/11/11 08:25:59;;;;;;;3.80;1.03;;;;;;;11.16;86.53;102419.13;5033635;28;20840;-67
2022/11/11 08:28:26;;;;;;;4.63;1.33;;;;;;;11.18;86.48;102419.66;5033488;28;20445;-69
2022/11/11 08:30:52;;;;;;;6.00;1.30;;;;;;;11.24;86.36;102422.13;5033395;28;20483;-68
2022/11/11 08:33:19;;;;;;;4.43;1.43;;;;;;;11.28;86.85;102425.16;5033080;28;20482;-68
2022/11/11 08:35:46;;;;;;;4.70;1.40;;;;;;;11.35;86.09;102428.47;5033412;28;20453;-68
2022/11/11 08:38:13;;;;;;;4.80;1.53;;;;;;;11.42;85.95;102428.25;5033161;28;20479;-67
2022/11/11 08:40:41;;;;;;;4.57;1.50;;;;;;;11.50;85.77;102430.47;5033358;28;20857;-67
2022/11/11 08:43:07;;;;;;;8.97;2.20;;;;;;;11.52;84.76;102434.56;5033088;28;20962;-68
2022/11/11 08:45:34;;;;;;;5.30;1.30;;;;;;;11.53;84.95;102446.22;5032967;28;20454;-67
2022/11/11 08:48:00;;;;;;;5.40;1.23;;;;;;;11.57;85.41;102456.31;5033325;28;20489;-67
2022/11/11 08:50:27;;;;;;;12.13;2.13;;;;;;;11.68;84.71;102461.78;5033027;28;20582;-68
2022/11/11 08:52:53;;;;;;;4.63;1.23;;;;;;;11.69;84.15;102463.44;5033344;28;20446;-68
2022/11/11 08:55:20;;;;;;;7.53;1.60;;;;;;;11.78;84.43;102459.97;5032945;28;20530;-68
2022/11/11 08:57:48;;;;;;;5.37;1.50;;;;;;;11.85;84.20;102470.63;5041754;28;20508;-68
2022/11/11 09:00:16;;;;;;;4.30;1.40;;;;;;;11.89;83.54;102465.47;5051862;28;20864;-69
2022/11/11 09:02:42;;;;;;;4.27;1.23;;;;;;;11.91;82.82;102471.44;5053094;28;20442;-68
2022/11/11 09:05:09;;;;;;;4.10;1.20;;;;;;;11.87;83.17;102471.19;5051561;28;20489;-68
2022/11/11 09:07:36;;;;;;;5.07;1.37;;;;;;;11.90;83.20;102469.81;5052912;28;20445;-68
2022/11/11 09:10:03;;;;;;;7.47;2.30;;;;;;;11.98;83.49;102475.56;5050832;28;20458;-68
2022/11/11 09:12:29;;;;;;;7.83;1.43;;;;;;;12.01;83.68;102480.50;5052767;28;20486;-68
2022/11/11 09:14:57;;;;;;;4.50;1.20;;;;;;;12.12;83.83;102482.16;5051922;28;20458;-68
2022/11/11 09:17:24;;;;;;;5.80;1.40;;;;;;;12.21;83.22;102485.19;5051915;28;20494;-68
2022/11/11 09:19:50;;;;;;;7.50;1.67;;;;;;;12.31;82.32;102490.69;5051843;28;20458;-68
2022/11/11 09:22:17;;;;;;;4.83;1.17;;;;;;;12.38;82.25;102485.81;5050274;28;21080;-74
2022/11/11 09:24:43;;;;;;;4.67;1.47;;;;;;;12.50;81.69;102492.94;5049511;28;20494;-67
2022/11/11 09:27:11;;;;;;;5.30;1.50;;;;;;;12.55;80.98;102495.66;5055844;28;20454;-67
2022/11/11 09:29:37;;;;;;;5.07;1.70;;;;;;;12.59;80.19;102491.31;5056652;28;20444;-67
2022/11/11 09:32:06;;;;;;;4.97;1.87;;;;;;;12.59;80.87;102503.00;5056212;28;20576;-67
2022/11/11 09:34:32;;;;;;;5.07;1.77;;;;;;;12.68;79.98;102500.59;5056477;28;20442;-67
2022/11/11 09:36:59;;;;;;;4.80;1.30;;;;;;;12.71;79.47;102504.69;5056120;28;20481;-69
2022/11/11 09:39:25;;;;;;;10.23;1.40;;;;;;;12.71;79.13;102505.50;5056499;28;20474;-67
2022/11/11 09:42:03;;;;;;;4.20;1.40;;;;;;;12.67;78.70;102509.84;5056058;28;20979;-69
2022/11/11 09:44:53;;;;;;;5.37;1.53;;;;;;;12.66;78.91;102508.22;5055441;28;20803;-69
2022/11/11 09:47:29;;;;;;;7.10;1.57;;;;;;;12.67;79.55;102500.88;5055729;28;20426;-70
2022/11/11 09:50:00;;;;;;;7.17;1.47;;;;;;;12.69;79.09;102502.22;5055277;28;20457;-69
2022/11/11 09:52:30;;;;;;;5.33;1.73;;;;;;;12.76;79.29;102513.66;5055632;28;20557;-75
2022/11/11 09:55:02;;;;;;;5.40;1.23;;;;;;;12.89;79.78;102515.06;5055969;28;21025;-76
2022/11/11 09:57:36;;;;;;;5.60;1.30;;;;;;;12.91;79.32;102514.78;5055859;28;20957;-72
2022/11/11 10:00:08;;;;;;;9.37;1.80;;;;;;;12.93;78.54;102515.34;5055698;28;20429;-73
2022/11/11 10:02:41;;;;;;;6.07;1.13;;;;;;;13.03;78.24;102515.34;5054537;28;20461;-72
2022/11/11 10:05:12;;;;;;;4.40;1.10;;;;;;;13.10;78.25;102524.06;5056006;28;20437;-72
2022/11/11 10:07:44;;;;;;;7.37;1.53;;;;;;;13.22;77.08;102526.53;5055815;28;20434;-72
2022/11/11 10:10:23;;;;;;;3.40;0.70;;;;;;;13.30;76.58;102531.47;5055557;28;20428;-73
2022/11/11 10:12:54;;;;;;;5.47;1.50;;;;;;;13.35;77.14;102532.28;5055963;28;20473;-73
2022/11/11 10:15:24;;;;;;;4.93;1.27;;;;;;;13.40;76.44;102527.91;5055875;28;20466;-73
2022/11/11 10:18:06;;;;;;;7.73;1.03;;;;;;;13.42;76.19;102521.13;5055761;28;20446;-73
2022/11/11 10:23:16;;;;;;;8.10;1.20;;;;;;;13.45;75.62;102525.19;5072984;28;20464;-68
2022/11/11 10:25:51;;;;;;;4.53;1.37;;;;;;;13.55;75.52;102530.66;5075810;28;20508;-68
2022/11/11 10:28:20;;;;;;;6.40;1.50;;;;;;;13.60;75.12;102545.09;5073487;28;20435;-69
2022/11/11 10:30:48;;;;;;;3.70;0.70;;;;;;;13.70;73.28;102535.28;5059037;28;20485;-68
2022/11/11 10:33:22;;;;;;;4.50;1.30;;;;;;;13.78;73.93;102534.72;5058565;28;20490;-68
2022/11/11 10:35:51;;;;;;;4.80;1.17;;;;;;;13.78;73.52;102532.81;5064636;28;20478;-68
2022/11/11 10:38:31;;;;;;;4.67;1.00;;;;;;;13.70;73.42;102533.34;5074052;28;20449;-69
2022/11/11 10:41:05;;;;;;;5.20;1.13;;;;;;;13.68;72.87;102529.25;5073902;28;20476;-69
2022/11/11 10:43:31;;;;;;;6.57;1.17;;;;;;;13.67;72.74;102522.19;5059550;28;21070;-69
2022/11/11 10:46:05;;;;;;;38.23;1.80;;;;;;;13.73;73.17;102519.19;5065337;28;20981;-69
2022/11/11 10:48:41;;;;;;;5.70;1.40;;;;;;;13.80;73.10;102532.53;5072739;28;20502;-69
2022/11/11 10:51:08;;;;;;;5.87;1.17;;;;;;;13.81;72.91;102528.69;5073277;28;20481;-69
2022/11/11 10:53:40;;;;;;;5.10;1.30;;;;;;;13.86;72.50;102524.09;5065443;28;20482;-69
2022/11/11 10:56:14;;;;;;;3.80;0.83;;;;;;;13.89;72.21;102528.97;5055661;28;20481;-68
2022/11/11 10:58:48;;;;;;;3.70;1.07;;;;;;;13.99;72.51;102519.97;5064834;28;20492;-69
2022/11/11 11:01:22;;;;;;;8.90;1.33;;;;;;;14.07;72.54;102516.66;5073593;28;20509;-68
2022/11/11 11:03:55;;;;;;;4.07;0.87;;;;;;;14.18;71.24;102527.53;5063769;28;20481;-69
2022/11/11 11:06:26;;;;;;;5.70;1.37;;;;;;;14.17;71.52;102515.03;5054814;28;20419;-68
2022/11/11 11:08:59;;;;;;;7.47;1.17;;;;;;;14.14;71.05;102513.66;5074925;28;20429;-69
2022/11/11 11:11:31;;;;;;;4.00;1.00;;;;;;;14.22;71.37;102510.34;5071819;28;20532;-67
2022/11/11 11:14:01;;;;;;;5.23;1.30;;;;;;;14.30;71.09;102512.50;5057235;28;20465;-69
2022/11/11 11:16:33;;;;;;;4.57;1.20;;;;;;;14.36;69.77;102507.84;5055238;28;20509;-68
2022/11/11 11:19:21;;;;;;;4.17;1.00;;;;;;;14.36;69.67;102510.56;5069277;28;20863;-68
2022/11/11 11:21:52;;;;;;;5.40;1.43;;;;;;;14.35;70.42;102506.22;5063104;28;20569;-68
2022/11/11 11:24:21;;;;;;;6.00;1.27;;;;;;;14.41;70.45;102504.28;5059651;28;20462;-68
2022/11/11 11:26:50;;;;;;;4.53;1.10;;;;;;;14.55;70.53;102500.69;5069547;28;20487;-69
2022/11/11 11:29:25;;;;;;;6.67;1.00;;;;;;;14.60;69.62;102502.56;5074200;28;20452;-69
2022/11/11 11:31:52;;;;;;;3.70;1.10;;;;;;;14.64;68.91;102498.19;5062814;28;20484;-68
2022/11/11 11:34:20;;;;;;;6.03;1.20;;;;;;;14.70;68.46;102497.09;5064189;28;20444;-69
2022/11/11 11:36:59;;;;;;;4.27;0.90;;;;;;;14.85;68.38;102486.06;5072543;28;20496;-69
2022/11/11 11:39:33;;;;;;;3.80;1.00;;;;;;;14.93;67.63;102495.56;5074023;28;20926;-69
2022/11/11 11:42:00;;;;;;;4.00;1.20;;;;;;;14.92;67.11;102484.91;5072477;28;21020;-69
2022/11/11 11:44:27;;;;;;;3.67;0.93;;;;;;;14.98;66.64;102479.16;5072587;28;20974;-68
2022/11/11 11:47:01;;;;;;;5.13;1.27;;;;;;;14.96;67.22;102477.78;5059681;28;20464;-69
2022/11/11 11:49:46;;;;;;;4.37;1.10;;;;;;;15.00;66.36;102473.41;5053891;28;20442;-68
2022/11/11 11:52:21;;;;;;;6.20;1.30;;;;;;;15.11;66.86;102474.97;5060183;28;20480;-69
2022/11/11 11:54:58;;;;;;;4.90;1.30;;;;;;;15.21;65.80;102474.88;5063435;28;20457;-68
2022/11/11 11:57:41;;;;;;;4.37;1.20;;;;;;;15.35;65.48;102475.03;5054335;28;20492;-69
2022/11/11 12:00:17;;;;;;;6.27;1.33;;;;;;;15.42;65.56;102467.34;5053796;28;20545;-69
2022/11/11 12:03:17;;;;;;;3.50;0.77;;;;;;;15.51;64.99;102473.78;5054369;28;20557;-69
2022/11/11 12:05:48;;;;;;;3.60;0.80;;;;;;;15.36;64.54;102477.50;5053595;28;20430;-68
2022/11/11 12:08:34;;;;;;;4.57;1.30;;;;;;;15.19;65.07;102473.56;5062163;28;20454;-68
2022/11/11 12:11:10;;;;;;;5.23;1.03;;;;;;;15.11;65.34;102464.88;5057256;28;20574;-69
2022/11/11 12:13:48;;;;;;;5.50;1.37;;;;;;;15.10;65.85;102470.63;5071014;28;20430;-69
2022/11/11 12:16:25;;;;;;;6.90;0.93;;;;;;;15.14;65.71;102468.94;5061126;28;20440;-69
2022/11/11 12:19:07;;;;;;;5.63;1.10;;;;;;;15.22;65.32;102473.78;5063806;28;20480;-69
2022/11/11 12:21:55;;;;;;;4.60;0.93;;;;;;;15.23;64.80;102472.69;5057008;28;20473;-70
2022/11/11 12:24:39;;;;;;;4.07;1.20;;;;;;;15.25;65.39;102470.47;5053847;28;20454;-66
2022/11/11 12:27:14;;;;;;;3.90;1.00;;;;;;;15.37;64.96;102470.13;5062074;28;20553;-67
2022/11/11 12:29:53;;;;;;;6.10;1.30;;;;;;;15.66;64.20;102466.56;5072314;28;20424;-67
2022/11/11 12:32:46;;;;;;;16.00;1.17;;;;;;;15.88;62.73;102480.53;5073273;28;20484;-67
2022/11/11 12:35:26;;;;;;;3.53;0.90;;;;;;;15.90;62.94;102467.41;5073196;28;20433;-67
2022/11/11 12:38:07;;;;;;;3.47;0.70;;;;;;;16.00;62.80;102466.47;5073491;28;20426;-67
2022/11/11 12:40:49;;;;;;;4.00;0.80;;;;;;;16.30;63.06;102473.50;5073669;28;20804;-68
2022/11/11 12:43:25;;;;;;;4.47;1.07;;;;;;;16.46;61.10;102476.84;5073039;28;20461;-65
2022/11/11 12:45:59;;;;;;;5.77;1.13;;;;;;;16.65;60.09;102474.94;5073465;28;20425;-70
2022/11/11 12:48:39;;;;;;;6.07;1.37;;;;;;;16.64;59.11;102479.59;5072942;28;20984;-69
2022/11/11 12:51:16;;;;;;;4.70;1.00;;;;;;;16.57;59.57;102478.34;5072887;28;21036;-69
2022/11/11 12:53:52;;;;;;;3.60;0.90;;;;;;;16.50;60.17;102478.69;5073364;28;20424;-69